Impacts TAF Board INFO
FOR SITUATIONAL AWARENESS. NOT TO BE USED FOR FLIGHT PLANNING PURPOSES.
IDs:

KPHL - Philadelphia Intl, PA, US

Issued at 1722 UTC 24 Mar 2017
Updated at 2004 UTC 24 Mar 2017
Potential Impact None Slight Moderate High
Time1954Z 24/21Z 24/22Z 24/23Z 25/00Z 25/01Z 25/02Z 25/03Z 25/04Z 25/05Z 25/06Z 25/07Z 25/08Z 25/09Z
Type OBS PRVL PRVL PRVL PRVL PRVL PRVL PRVL PRVL PRVL PRVL PRVL PRVL PRVL
VIS 10 >6 >6 >6 >6 >6 >6 >6 >6 >6 >6 >6 >6 >6
CIG 250 50 50 90 90 90 100 100 100 100 100 100 100 100
Cover BKN BKN BKN BKN BKN BKN BKN BKN BKN BKN BKN BKN BKN BKN
FltCat VFR VFR VFR VFR VFR VFR VFR VFR VFR VFR VFR VFR VFR VFR
WX -- -- -- -- -- -- -- -- -- -- -- -- -- --
WDir 210 220 220 220 220 220 220 220 220 220 220 220 220 250
WSpd 13 12 12 9 9 9 5 5 5 5 5 5 5 9
WGst 22 23 23 -- -- -- -- -- -- -- -- -- -- --

Raw TAF
KPHL 241722Z 2418/2524 22012G23KT P6SM BKN050
  FM242300 22009KT P6SM BKN090
  FM250200 22005KT P6SM BKN100 WS020/23035KT
  FM250900 25009KT P6SM BKN100
  FM252200 31005KT P6SM OVC020


Raw METAR
KPHL 241954Z 21013G22KT 10SM SCT090 BKN250 14/01 A3022 RMK AO2 SLP232 T01390006
KPHL 241854Z 23017KT 10SM FEW047 SCT075 BKN090 BKN250 13/M01 A3027 RMK AO2 PK WND 20026/1807 SLP248 T01331011
KPHL 241754Z 21019G26KT 10SM SCT047 BKN090 BKN250 13/M02 A3029 RMK AO2 PK WND 20029/1729 SLP257 T01281017 10128 20006 58047

METAR Board
Radar Display
Forecast Discussion

FOR SITUATIONAL AWARENESS. NOT TO BE USED FOR FLIGHT PLANNING PURPOSES.

Page loaded:  20:04 UTC  |   01:04 PM Pacific  |   02:04 PM Mountain  |   03:04 PM Central  |   04:04 PM Eastern

 

ADVISORIES

FORECASTS

FORECASTS

OBSERVATIONS

USER TOOLS

ABOUT US